Time;durP1;ratioP1;P1;durP2;ratioP2;P2;SDS_P1;SDS_P2;PMS_P1;PMS_P2;Temp;Humidity;BMP_temperature;BMP_pressure;BME280_temperature;BME280_humidity;BME280_pressure;Samples;Min_cycle;Max_cycle;Signal;HPM_P1;HPM_P2
2023/09/27 00:01:44;;;;;;;17.30;9.77;;;;;;;14.36;100.00;101875.09;7393738;19;20415;-41
2023/09/27 00:04:16;;;;;;;14.53;10.33;;;;;;;14.29;100.00;101866.13;7367354;19;20471;-41
2023/09/27 00:06:46;;;;;;;15.60;10.73;;;;;;;14.27;100.00;101858.28;7393649;19;20399;-44
2023/09/27 00:09:15;;;;;;;16.80;10.17;;;;;;;14.24;100.00;101857.25;7370126;19;20420;-40
2023/09/27 00:11:45;;;;;;;14.37;10.60;;;;;;;14.22;100.00;101861.50;7394917;19;20430;-42
2023/09/27 00:14:15;;;;;;;17.03;11.57;;;;;;;14.21;100.00;101871.00;7369138;19;21010;-40
2023/09/27 00:16:45;;;;;;;14.27;10.20;;;;;;;14.19;100.00;101877.81;7395112;19;20415;-42
2023/09/27 00:19:17;;;;;;;20.47;11.73;;;;;;;14.15;100.00;101884.56;7369502;19;20423;-40
2023/09/27 00:21:47;;;;;;;15.80;11.47;;;;;;;14.13;100.00;101881.03;7391846;19;20478;-42
2023/09/27 00:24:17;;;;;;;17.10;11.07;;;;;;;14.11;100.00;101866.22;7368367;19;21093;-40
2023/09/27 00:26:46;;;;;;;13.50;10.50;;;;;;;14.10;100.00;101870.50;7392972;19;20415;-42
2023/09/27 00:29:16;;;;;;;15.37;10.90;;;;;;;14.11;100.00;101863.63;7369819;19;20970;-42
2023/09/27 00:31:46;;;;;;;15.07;10.93;;;;;;;14.08;100.00;101850.47;7392840;19;20434;-40
2023/09/27 00:34:18;;;;;;;15.10;10.80;;;;;;;14.07;100.00;101860.00;7368801;19;21089;-40
2023/09/27 00:36:47;;;;;;;14.37;10.83;;;;;;;14.01;100.00;101859.72;7392661;19;20487;-43
2023/09/27 00:39:17;;;;;;;17.53;12.60;;;;;;;13.98;100.00;101870.84;7369565;19;20446;-42
2023/09/27 00:41:47;;;;;;;15.07;10.67;;;;;;;13.97;100.00;101860.38;7390750;19;20411;-41
2023/09/27 00:44:16;;;;;;;17.77;11.50;;;;;;;13.91;100.00;101853.22;7367287;19;20479;-41
2023/09/27 00:46:46;;;;;;;15.50;11.60;;;;;;;13.89;100.00;101853.16;7392009;19;20411;-41
2023/09/27 00:49:18;;;;;;;15.03;11.20;;;;;;;13.91;100.00;101859.28;7367865;19;20987;-42
2023/09/27 00:51:48;;;;;;;17.57;12.03;;;;;;;13.94;100.00;101852.47;7391950;19;20494;-40
2023/09/27 00:54:17;;;;;;;18.73;12.83;;;;;;;13.93;100.00;101841.19;7367580;19;20898;-42
2023/09/27 00:56:49;;;;;;;17.00;12.20;;;;;;;13.88;100.00;101834.91;7391836;19;20418;-42
2023/09/27 00:59:18;;;;;;;14.93;10.87;;;;;;;13.86;100.00;101828.78;7368497;19;20435;-42
2023/09/27 01:01:48;;;;;;;15.90;11.17;;;;;;;13.84;100.00;101836.47;7391612;19;20407;-42
2023/09/27 01:04:34;;;;;;;16.53;12.17;;;;;;;13.79;100.00;101832.78;7356621;19;20451;-41
2023/09/27 01:07:04;;;;;;;15.57;11.00;;;;;;;13.77;100.00;101834.44;7390163;19;20839;-40
2023/09/27 01:09:34;;;;;;;17.13;12.33;;;;;;;13.74;100.00;101832.59;7368694;19;20504;-41
2023/09/27 01:12:04;;;;;;;18.27;12.53;;;;;;;13.70;100.00;101837.56;7395029;19;20611;-43
2023/09/27 01:14:33;;;;;;;18.10;12.37;;;;;;;13.66;100.00;101841.72;7371746;19;20455;-40
2023/09/27 01:17:10;;;;;;;17.13;12.90;;;;;;;13.64;100.00;101838.16;7395094;19;20395;-40
2023/09/27 01:19:42;;;;;;;19.13;12.13;;;;;;;13.60;100.00;101837.13;7375823;19;20445;-40
2023/09/27 01:22:12;;;;;;;20.10;13.23;;;;;;;13.56;100.00;101840.41;7384822;19;20784;-39
2023/09/27 01:24:44;;;;;;;17.73;11.97;;;;;;;13.48;100.00;101839.13;7394348;19;21109;-40
2023/09/27 01:27:15;;;;;;;18.17;12.30;;;;;;;13.50;100.00;101842.72;7372246;19;20866;-40
2023/09/27 01:29:45;;;;;;;16.03;11.60;;;;;;;13.44;100.00;101844.97;7393376;19;20414;-41
2023/09/27 01:32:14;;;;;;;16.17;11.90;;;;;;;13.45;100.00;101845.06;7372283;19;20875;-41
2023/09/27 01:34:44;;;;;;;17.20;12.47;;;;;;;13.42;100.00;101844.91;7393385;19;20577;-40
2023/09/27 01:37:14;;;;;;;16.67;12.60;;;;;;;13.38;100.00;101848.16;7375625;19;20436;-40
2023/09/27 01:39:46;;;;;;;17.23;12.30;;;;;;;13.40;100.00;101843.06;7397159;19;20483;-39
2023/09/27 01:42:16;;;;;;;19.13;12.70;;;;;;;13.39;100.00;101836.09;7375067;19;20415;-39
2023/09/27 01:44:46;;;;;;;21.93;12.83;;;;;;;13.34;100.00;101818.59;7395360;19;20446;-41
2023/09/27 01:47:15;;;;;;;24.07;13.13;;;;;;;13.30;100.00;101810.63;7377148;19;20737;-40
2023/09/27 01:49:45;;;;;;;18.70;13.67;;;;;;;13.26;100.00;101809.59;7395397;19;20399;-42
2023/09/27 01:52:15;;;;;;;16.83;12.40;;;;;;;13.26;100.00;101816.47;7375160;19;20431;-40
2023/09/27 01:54:47;;;;;;;19.77;13.40;;;;;;;13.26;100.00;101819.97;7395027;19;20525;-41
2023/09/27 01:57:16;;;;;;;23.27;15.47;;;;;;;13.23;100.00;101815.50;7375807;19;20482;-40
2023/09/27 01:59:46;;;;;;;27.33;18.07;;;;;;;13.30;100.00;101810.63;7395521;19;20919;-41
2023/09/27 02:02:16;;;;;;;25.87;16.50;;;;;;;13.23;100.00;101815.50;7375862;19;21105;-41
2023/09/27 02:04:45;;;;;;;22.87;16.77;;;;;;;13.19;100.00;101813.59;7394686;19;20450;-41
2023/09/27 02:07:15;;;;;;;25.10;17.43;;;;;;;13.16;100.00;101813.44;7375505;19;20408;-40
2023/09/27 02:09:47;;;;;;;25.07;17.37;;;;;;;13.10;100.00;101814.06;7395712;19;20430;-41
2023/09/27 02:12:17;;;;;;;24.80;16.93;;;;;;;13.16;100.00;101812.53;7375378;19;20412;-40
2023/09/27 02:14:47;;;;;;;28.37;19.10;;;;;;;13.15;100.00;101808.19;7394478;19;20446;-41
2023/09/27 02:17:16;;;;;;;27.07;17.60;;;;;;;13.10;100.00;101808.88;7374266;19;20420;-42
2023/09/27 02:19:46;;;;;;;23.77;16.47;;;;;;;13.05;100.00;101814.63;7394966;19;20411;-42
2023/09/27 02:22:16;;;;;;;22.37;16.80;;;;;;;13.04;100.00;101821.53;7372946;19;20407;-40
2023/09/27 02:24:48;;;;;;;24.13;17.40;;;;;;;13.03;100.00;101822.31;7395861;19;20511;-42
2023/09/27 02:27:19;;;;;;;19.97;15.80;;;;;;;13.01;100.00;101828.22;7371884;19;20408;-40
2023/09/27 02:29:49;;;;;;;25.70;16.80;;;;;;;12.96;100.00;101836.69;7396134;19;20849;-40
2023/09/27 02:32:19;;;;;;;23.47;17.20;;;;;;;12.94;100.00;101832.25;7374779;19;20482;-40
2023/09/27 02:34:49;;;;;;;21.90;16.17;;;;;;;12.93;100.00;101825.28;7395551;19;20450;-41
2023/09/27 02:37:20;;;;;;;27.63;17.67;;;;;;;12.90;100.00;101827.72;7374848;19;20416;-41
2023/09/27 02:39:52;;;;;;;23.60;17.30;;;;;;;12.86;100.00;101824.09;7394399;19;20407;-40
2023/09/27 02:42:22;;;;;;;24.03;17.43;;;;;;;12.85;100.00;101827.50;7374497;19;20479;-39
2023/09/27 02:44:52;;;;;;;29.07;18.33;;;;;;;12.82;100.00;101815.28;7393603;19;20518;-41
2023/09/27 02:47:22;;;;;;;25.13;16.87;;;;;;;12.81;100.00;101810.91;7373310;19;20416;-40
2023/09/27 02:49:51;;;;;;;26.40;18.33;;;;;;;12.81;100.00;101804.84;7395707;19;20408;-40
2023/09/27 02:52:21;;;;;;;25.90;18.23;;;;;;;12.80;100.00;101818.59;7375773;19;20400;-41
2023/09/27 02:54:53;;;;;;;26.37;17.70;;;;;;;12.84;100.00;101810.19;7393655;19;20438;-40
2023/09/27 02:57:23;;;;;;;23.30;17.10;;;;;;;12.87;100.00;101804.28;7374096;19;20427;-40
2023/09/27 02:59:52;;;;;;;27.73;18.07;;;;;;;12.82;100.00;101802.34;7394041;19;20424;-42
2023/09/27 03:02:23;;;;;;;25.90;17.30;;;;;;;12.75;100.00;101797.66;7374162;19;20823;-41
2023/09/27 03:04:53;;;;;;;23.33;17.27;;;;;;;12.80;100.00;101801.38;7393354;19;20443;-39
2023/09/27 03:07:23;;;;;;;26.50;18.17;;;;;;;12.80;100.00;101801.38;7373474;19;20968;-42
2023/09/27 03:09:58;;;;;;;27.40;17.10;;;;;;;12.81;100.00;101804.84;7395666;19;20398;-42
2023/09/27 03:12:28;;;;;;;26.60;17.23;;;;;;;12.80;100.00;101818.59;7375440;19;20502;-42
2023/09/27 03:14:58;;;;;;;28.50;18.50;;;;;;;12.77;100.00;101824.53;7394566;19;21085;-40
2023/09/27 03:17:27;;;;;;;27.10;18.30;;;;;;;12.78;100.00;101830.59;7373633;19;20417;-40
2023/09/27 03:19:57;;;;;;;24.47;17.70;;;;;;;12.81;100.00;101825.56;7393557;19;20967;-41
2023/09/27 03:22:26;;;;;;;25.77;17.07;;;;;;;12.84;100.00;101820.53;7373114;19;20411;-40
2023/09/27 03:24:59;;;;;;;23.60;17.27;;;;;;;12.76;100.00;101827.94;7393221;19;20979;-41
2023/09/27 03:27:29;;;;;;;23.40;17.07;;;;;;;12.72;100.00;101828.56;7373497;19;20404;-41
2023/09/27 03:29:59;;;;;;;25.73;17.23;;;;;;;12.68;100.00;101842.19;7393657;19;20960;-42
2023/09/27 03:32:28;;;;;;;25.53;17.13;;;;;;;12.59;100.00;101844.31;7372333;19;20408;-41
2023/09/27 03:34:58;;;;;;;25.37;17.20;;;;;;;12.53;100.00;101844.91;7394072;19;20451;-39
2023/09/27 03:37:28;;;;;;;25.60;16.50;;;;;;;12.52;100.00;101850.88;7373456;19;20423;-39
2023/09/27 03:40:00;;;;;;;26.03;16.40;;;;;;;12.52;100.00;101863.81;7395754;19;20409;-41
2023/09/27 03:42:30;;;;;;;27.73;17.97;;;;;;;12.52;100.00;101863.81;7373691;19;20487;-40
2023/09/27 03:44:59;;;;;;;25.43;17.30;;;;;;;12.51;100.00;101873.28;7393843;19;20439;-41
2023/09/27 03:47:29;;;;;;;25.03;17.23;;;;;;;12.51;100.00;101869.81;7371905;19;20404;-41
2023/09/27 03:49:59;;;;;;;27.40;16.60;;;;;;;12.50;100.00;101866.34;7393175;19;20946;-41
2023/09/27 03:52:29;;;;;;;22.47;16.10;;;;;;;12.48;100.00;101870.56;7372791;19;20487;-40
2023/09/27 03:55:01;;;;;;;26.30;16.70;;;;;;;12.45;100.00;101864.31;7392806;19;20447;-42
2023/09/27 03:57:30;;;;;;;22.90;16.90;;;;;;;12.46;100.00;101879.91;7372828;19;20407;-41
2023/09/27 04:00:00;;;;;;;27.83;16.57;;;;;;;12.50;100.00;101880.97;7394997;19;20404;-41
2023/09/27 04:02:31;;;;;;;26.00;17.60;;;;;;;12.45;100.00;101880.72;7372628;19;20490;-41
2023/09/27 04:05:02;;;;;;;25.80;16.60;;;;;;;12.36;100.00;101875.97;7392238;19;20829;-41
2023/09/27 04:07:32;;;;;;;24.77;16.77;;;;;;;12.31;100.00;101869.66;7374385;19;20400;-40
2023/09/27 04:10:05;;;;;;;23.90;17.30;;;;;;;12.27;100.00;101871.19;7392656;19;20943;-40
2023/09/27 04:12:35;;;;;;;22.90;15.57;;;;;;;12.29;100.00;101867.00;7371507;19;20391;-40
2023/09/27 04:15:07;;;;;;;24.47;16.90;;;;;;;12.29;100.00;101861.81;7392371;19;20443;-40
2023/09/27 04:17:37;;;;;;;22.27;15.43;;;;;;;12.32;100.00;101871.44;7370077;19;20416;-42
2023/09/27 04:20:14;;;;;;;23.27;16.37;;;;;;;12.28;100.00;101873.00;7392807;19;20399;-42
2023/09/27 04:22:47;;;;;;;23.60;16.37;;;;;;;12.22;100.00;101870.09;7371553;19;20395;-40
2023/09/27 04:25:20;;;;;;;23.40;16.30;;;;;;;12.20;100.00;101887.19;7391923;19;20443;-40
2023/09/27 04:27:50;;;;;;;23.77;16.07;;;;;;;12.19;100.00;101875.06;7371316;19;20418;-40
2023/09/27 04:30:22;;;;;;;22.83;15.83;;;;;;;12.15;100.00;101868.84;7393335;19;20431;-40
2023/09/27 04:32:53;;;;;;;23.07;15.60;;;;;;;12.15;100.00;101866.28;7369747;19;20426;-39
2023/09/27 04:35:23;;;;;;;23.63;16.30;;;;;;;12.15;100.00;101865.38;7393706;19;20455;-39
2023/09/27 04:37:53;;;;;;;22.90;15.90;;;;;;;12.12;100.00;101870.38;7369577;19;20487;-39
2023/09/27 04:40:25;;;;;;;23.67;16.67;;;;;;;12.09;100.00;101868.53;7392710;19;20446;-40
2023/09/27 04:42:55;;;;;;;23.57;15.90;;;;;;;12.09;100.00;101867.63;7368927;19;20474;-39
2023/09/27 04:45:24;;;;;;;20.60;15.10;;;;;;;12.06;100.00;101867.47;7389964;19;20522;-41
2023/09/27 04:47:54;;;;;;;22.73;15.70;;;;;;;12.04;100.00;101863.94;7367633;19;20938;-40
2023/09/27 04:50:24;;;;;;;21.03;14.83;;;;;;;12.00;100.00;101868.88;7392896;19;20403;-39
2023/09/27 04:52:53;;;;;;;36.73;23.33;;;;;;;12.24;100.00;101870.13;7370205;19;20981;-41
2023/09/27 04:55:25;;;;;;;35.63;22.60;;;;;;;12.46;100.00;101860.94;7392158;19;20451;-39
2023/09/27 04:57:55;;;;;;;55.43;30.53;;;;;;;12.51;100.00;101862.94;7368964;19;20411;-39
2023/09/27 05:00:25;;;;;;;46.47;27.73;;;;;;;12.41;100.00;101871.91;7394173;19;20429;-39
2023/09/27 05:02:55;;;;;;;41.43;24.50;;;;;;;12.36;100.00;101872.50;7368298;19;20411;-39
2023/09/27 05:05:24;;;;;;;36.53;23.40;;;;;;;12.42;100.00;101883.16;7391762;19;20439;-40
2023/09/27 05:07:54;;;;;;;36.47;21.47;;;;;;;12.80;100.00;101883.34;7368356;19;20954;-41
2023/09/27 05:10:26;;;;;;;29.27;17.87;;;;;;;12.67;100.00;101895.66;7392067;19;20400;-41
2023/09/27 05:12:56;;;;;;;25.70;17.90;;;;;;;12.82;100.00;101915.41;7368744;19;20978;-39
2023/09/27 05:15:26;;;;;;;171.37;82.83;;;;;;;12.79;100.00;101934.28;7391891;19;20523;-40
2023/09/27 05:17:55;;;;;;;102.60;50.00;;;;;;;12.89;100.00;101937.31;7367969;19;20423;-40
2023/09/27 05:20:25;;;;;;;42.10;24.63;;;;;;;12.88;100.00;101944.22;7391844;19;20425;-39
2023/09/27 05:22:55;;;;;;;74.27;38.77;;;;;;;12.82;100.00;101959.44;7367256;19;20547;-39
2023/09/27 05:25:27;;;;;;;72.17;38.27;;;;;;;12.71;100.00;101974.41;7391553;19;20451;-40
2023/09/27 05:27:57;;;;;;;49.43;28.80;;;;;;;12.62;100.00;101973.94;7368002;19;20407;-41
2023/09/27 05:30:26;;;;;;;37.70;21.03;;;;;;;12.52;100.00;101975.13;7391787;19;20471;-41
2023/09/27 05:32:56;;;;;;;32.70;19.47;;;;;;;12.28;100.00;101976.50;7367899;19;20434;-41
2023/09/27 05:35:26;;;;;;;31.10;19.77;;;;;;;12.27;100.00;101976.41;7391295;19;20451;-40
2023/09/27 05:37:55;;;;;;;32.50;19.87;;;;;;;12.35;100.00;101979.41;7367892;19;20411;-42
2023/09/27 05:40:28;;;;;;;32.57;20.23;;;;;;;12.45;100.00;101975.63;7391119;19;21363;-40
2023/09/27 05:42:57;;;;;;;26.30;18.63;;;;;;;12.45;100.00;101973.03;7367695;19;20428;-39
2023/09/27 05:45:29;;;;;;;28.57;18.40;;;;;;;12.43;100.00;101975.53;7391013;19;20963;-39
2023/09/27 05:47:59;;;;;;;45.17;25.27;;;;;;;12.47;100.00;101979.19;7361566;19;20438;-52
2023/09/27 05:50:29;;;;;;;34.77;19.30;;;;;;;12.45;100.00;101976.50;7390245;19;20427;-53
2023/09/27 05:52:59;;;;;;;37.53;22.03;;;;;;;12.46;100.00;101972.22;7366057;19;20994;-52
2023/09/27 05:55:32;;;;;;;38.90;22.60;;;;;;;12.35;100.00;101969.06;7393192;19;20424;-55
2023/09/27 05:58:02;;;;;;;38.40;23.60;;;;;;;12.38;100.00;101964.03;7374112;19;20448;-52
2023/09/27 06:00:37;;;;;;;43.63;24.40;;;;;;;12.38;100.00;101961.44;7396773;19;20408;-52
2023/09/27 06:03:07;;;;;;;43.70;23.43;;;;;;;12.43;100.00;101957.41;7372938;19;20508;-53
2023/09/27 06:05:37;;;;;;;25.73;16.07;;;;;;;12.33;100.00;101952.53;7397572;19;20431;-54
2023/09/27 06:08:07;;;;;;;28.33;17.10;;;;;;;12.26;100.00;101948.75;7373620;19;20428;-53
2023/09/27 06:10:40;;;;;;;23.20;16.20;;;;;;;12.25;100.00;101945.25;7400411;19;20418;-50
2023/09/27 06:13:10;;;;;;;29.20;17.77;;;;;;;12.31;100.00;101936.94;7373574;19;20426;-54
2023/09/27 06:15:43;;;;;;;26.07;16.90;;;;;;;12.36;100.00;101944.97;7395183;19;21022;-51
2023/09/27 06:18:13;;;;;;;25.93;16.43;;;;;;;12.36;100.00;101939.78;7376147;19;20442;-50
2023/09/27 06:20:43;;;;;;;32.43;19.60;;;;;;;12.46;100.00;101938.56;7395639;19;20431;-49
2023/09/27 06:23:13;;;;;;;27.87;18.17;;;;;;;12.48;100.00;101937.84;7374798;19;20426;-51
2023/09/27 06:25:46;;;;;;;24.03;16.60;;;;;;;12.40;100.00;101942.63;7398587;19;20431;-53
2023/09/27 06:28:16;;;;;;;25.50;16.97;;;;;;;12.41;100.00;101948.69;7373527;19;20502;-49
2023/09/27 06:30:45;;;;;;;29.00;17.23;;;;;;;12.53;100.00;101948.44;7398066;19;20410;-52
2023/09/27 06:33:15;;;;;;;25.80;15.90;;;;;;;12.65;100.00;101948.19;7373925;19;20423;-52
2023/09/27 06:35:45;;;;;;;25.90;16.17;;;;;;;12.59;100.00;101951.34;7394960;19;20931;-50
2023/09/27 06:38:19;;;;;;;25.47;15.73;;;;;;;12.50;100.00;101946.56;7370614;19;20439;-51
2023/09/27 06:40:51;;;;;;;25.30;16.23;;;;;;;12.66;100.00;101944.78;7396426;19;20407;-48
2023/09/27 06:43:21;;;;;;;24.40;16.43;;;;;;;12.71;100.00;101945.03;7374024;19;20423;-51
2023/09/27 06:45:50;;;;;;;26.67;17.00;;;;;;;12.80;100.00;101940.31;7395484;19;20435;-52
2023/09/27 06:48:20;;;;;;;22.93;15.77;;;;;;;12.88;100.00;101938.13;7371011;19;20503;-49
2023/09/27 06:50:50;;;;;;;22.13;15.10;;;;;;;12.84;100.00;101926.72;7396098;19;20407;-49
2023/09/27 06:53:20;;;;;;;22.97;16.50;;;;;;;12.85;100.00;101925.00;7372240;19;20428;-54
2023/09/27 06:55:58;;;;;;;27.67;16.13;;;;;;;13.02;100.00;101928.47;7396028;19;20431;-52
2023/09/27 06:58:29;;;;;;;25.80;15.90;;;;;;;13.18;100.00;101930.13;7374604;19;20796;-49
2023/09/27 07:00:59;;;;;;;23.67;16.60;;;;;;;13.30;100.00;101940.22;7399149;19;20504;-53
2023/09/27 07:03:33;;;;;;;24.47;16.60;;;;;;;13.30;100.00;101950.56;7373554;19;20427;-51
2023/09/27 07:06:04;;;;;;;23.03;16.27;;;;;;;13.32;100.00;101955.03;7398072;19;20422;-50
2023/09/27 07:08:34;;;;;;;22.20;14.03;;;;;;;13.29;100.00;101959.16;7371590;19;20445;-48
2023/09/27 07:11:11;;;;;;;20.07;15.20;;;;;;;13.27;100.00;101972.03;7398106;19;20418;-48
2023/09/27 07:13:41;;;;;;;22.10;15.10;;;;;;;13.33;100.00;101964.56;7370226;19;20431;-49
2023/09/27 07:16:26;;;;;;;24.27;16.30;;;;;;;13.47;100.00;101970.47;7396111;19;20406;-49
2023/09/27 07:18:59;;;;;;;23.57;14.90;;;;;;;13.49;100.00;101973.16;7372423;19;20446;-54
2023/09/27 07:21:30;;;;;;;21.00;14.50;;;;;;;13.63;100.00;101979.91;7398675;19;20413;-51
2023/09/27 07:23:59;;;;;;;20.90;15.00;;;;;;;13.62;100.00;101980.72;7371414;19;20434;-50
2023/09/27 07:26:32;;;;;;;24.30;16.00;;;;;;;13.67;100.00;101982.63;7398429;19;20487;-52
2023/09/27 07:29:02;;;;;;;24.33;15.53;;;;;;;13.73;100.00;101989.00;7369918;19;20446;-52
2023/09/27 07:31:32;;;;;;;25.47;13.97;;;;;;;13.81;100.00;101991.09;7392164;19;20479;-55
2023/09/27 07:34:02;;;;;;;20.20;14.30;;;;;;;13.91;100.00;101983.81;7370904;19;20460;-52
2023/09/27 07:36:32;;;;;;;21.30;13.33;;;;;;;14.03;100.00;101983.53;7396423;19;20411;-49
2023/09/27 07:39:03;;;;;;;22.03;13.30;;;;;;;14.13;100.00;101984.84;7372292;19;20438;-53
2023/09/27 07:41:35;;;;;;;24.83;16.30;;;;;;;14.22;100.00;101993.84;7396275;19;20428;-49
2023/09/27 07:44:09;;;;;;;27.67;14.87;;;;;;;14.28;100.00;102014.91;7368677;19;20508;-50
2023/09/27 07:46:39;;;;;;;18.93;13.90;;;;;;;14.36;100.00;102029.13;7393033;19;20411;-52
2023/09/27 07:49:09;;;;;;;21.37;13.70;;;;;;;14.45;100.00;102037.34;7367983;19;20431;-53
2023/09/27 07:51:38;;;;;;;19.67;14.33;;;;;;;14.54;100.00;102043.78;7397845;19;20771;-54
2023/09/27 07:54:08;;;;;;;21.30;13.93;;;;;;;14.67;100.00;102053.03;7372782;19;20498;-49
2023/09/27 07:56:41;;;;;;;21.20;13.87;;;;;;;14.78;100.00;102074.34;7395481;19;20809;-49
2023/09/27 07:59:11;;;;;;;24.50;12.47;;;;;;;14.88;100.00;102086.94;7372998;19;20454;-49
2023/09/27 08:01:42;;;;;;;24.27;13.50;;;;;;;14.99;100.00;102101.28;7393825;19;20404;-52
2023/09/27 08:04:14;;;;;;;18.70;12.47;;;;;;;15.15;100.00;102101.97;7369653;19;20433;-51
2023/09/27 08:06:45;;;;;;;20.23;13.77;;;;;;;15.30;100.00;102121.66;7393527;19;20983;-52
2023/09/27 08:09:16;;;;;;;18.93;13.37;;;;;;;15.37;100.00;102139.31;7368735;19;20435;-48
2023/09/27 08:12:08;;;;;;;20.67;13.73;;;;;;;15.48;100.00;102164.06;7394461;19;20396;-48
2023/09/27 08:14:38;;;;;;;25.80;16.87;;;;;;;15.62;100.00;102182.00;7370763;19;20514;-53
2023/09/27 08:17:08;;;;;;;23.03;13.47;;;;;;;15.75;100.00;102205.09;7394595;19;20414;-49
2023/09/27 08:19:38;;;;;;;19.30;14.00;;;;;;;15.82;100.00;102236.59;7371541;19;20438;-50
2023/09/27 08:22:09;;;;;;;22.40;12.60;;;;;;;15.94;100.00;102242.38;7394181;19;20404;-48
2023/09/27 08:24:38;;;;;;;19.03;13.40;;;;;;;16.04;100.00;102241.97;7369522;19;20993;-50
2023/09/27 08:27:11;;;;;;;21.60;13.67;;;;;;;16.13;100.00;102246.66;7393232;19;21062;-51
2023/09/27 08:29:40;;;;;;;24.50;14.70;;;;;;;16.23;100.00;102260.06;7370283;19;20510;-52
2023/09/27 08:32:10;;;;;;;17.83;13.10;;;;;;;16.32;100.00;102276.97;7393309;19;20418;-49
2023/09/27 08:34:40;;;;;;;20.70;12.77;;;;;;;16.44;100.00;102291.34;7370869;19;20435;-50
2023/09/27 08:37:11;;;;;;;22.77;13.33;;;;;;;16.56;100.00;102304.88;7393790;19;20938;-50
2023/09/27 08:39:41;;;;;;;16.07;11.30;;;;;;;16.68;100.00;102321.84;7370596;19;20431;-50
2023/09/27 08:42:13;;;;;;;17.50;11.50;;;;;;;16.82;100.00;102344.16;7395526;19;20779;-52
2023/09/27 08:44:43;;;;;;;22.07;12.10;;;;;;;16.87;100.00;102355.66;7370430;19;20450;-55
2023/09/27 08:47:13;;;;;;;19.00;12.00;;;;;;;17.00;100.00;102344.03;7380593;19;20411;-55
2023/09/27 08:49:43;;;;;;;17.10;10.70;;;;;;;17.12;100.00;102329.72;7393012;19;20411;-54
2023/09/27 08:52:13;;;;;;;20.27;12.63;;;;;;;17.26;100.00;102327.66;7382838;19;20431;-53
2023/09/27 08:54:43;;;;;;;17.97;10.83;;;;;;;17.35;100.00;102321.91;7394167;19;20433;-51
2023/09/27 08:57:16;;;;;;;24.60;10.50;;;;;;;17.48;100.00;102321.53;7379045;19;20443;-52
2023/09/27 08:59:46;;;;;;;23.60;11.10;;;;;;;17.58;100.00;102314.94;7393725;19;20407;-49
2023/09/27 09:02:16;;;;;;;18.63;9.73;;;;;;;17.68;100.00;102309.25;7368736;19;20411;-51
2023/09/27 09:04:46;;;;;;;19.20;11.90;;;;;;;17.81;100.00;102304.47;7391925;19;20982;-54
2023/09/27 09:07:15;;;;;;;17.93;11.40;;;;;;;17.89;100.00;102289.09;7370462;19;20415;-53
2023/09/27 09:09:46;;;;;;;17.87;10.00;;;;;;;18.02;100.00;102269.53;7390162;19;20414;-50
2023/09/27 09:12:18;;;;;;;18.63;10.00;;;;;;;18.15;100.00;102256.09;7372001;19;20482;-53
2023/09/27 09:14:49;;;;;;;16.73;9.73;;;;;;;18.30;100.00;102231.34;7390076;19;20407;-49
2023/09/27 09:17:24;;;;;;;24.23;9.50;;;;;;;18.40;100.00;102214.25;7370240;19;20407;-51
2023/09/27 09:20:15;;;;;;;26.97;10.10;;;;;;;18.47;100.00;102210.97;7391362;19;20411;-51
2023/09/27 09:22:46;;;;;;;14.77;8.57;;;;;;;18.64;100.00;102208.88;7369508;19;20415;-51
2023/09/27 09:25:16;;;;;;;16.43;8.77;;;;;;;18.69;100.00;102169.81;7387776;19;20432;-53
2023/09/27 09:28:03;;;;;;;14.33;7.70;;;;;;;18.79;100.00;102129.16;7367752;19;20455;-48
2023/09/27 09:30:38;;;;;;;10.60;7.07;;;;;;;18.97;100.00;102069.56;7393839;19;20404;-48
2023/09/27 09:33:12;;;;;;;15.93;6.50;;;;;;;19.16;100.00;102070.09;7375631;19;20494;-49
2023/09/27 09:35:41;;;;;;;15.63;6.63;;;;;;;19.36;100.00;102038.34;7396950;19;20491;-49
2023/09/27 09:38:11;;;;;;;9.80;5.83;;;;;;;19.51;100.00;102064.91;7374231;19;20483;-49
2023/09/27 09:40:54;;;;;;;15.13;7.60;;;;;;;19.63;100.00;102026.81;7399158;19;20415;-53
2023/09/27 09:43:36;;;;;;;15.90;7.90;;;;;;;19.76;100.00;102034.09;7376057;19;20457;-51
2023/09/27 09:46:10;;;;;;;11.53;6.90;;;;;;;19.83;100.00;101994.13;7397979;19;20432;-51
2023/09/27 09:48:41;;;;;;;8.43;5.50;;;;;;;19.99;100.00;102052.09;7374699;19;20443;-56
2023/09/27 09:51:11;;;;;;;10.00;5.73;;;;;;;20.05;100.00;101967.56;7398843;19;20407;-53
2023/09/27 09:53:42;;;;;;;15.33;7.83;;;;;;;19.93;100.00;101801.41;7374515;19;20450;-49
2023/09/27 09:56:14;;;;;;;19.23;6.40;;;;;;;20.03;100.00;101734.41;7397366;19;20403;-52
2023/09/27 09:59:03;;;;;;;8.20;5.40;;;;;;;20.15;100.00;101707.53;7373971;19;20465;-49
2023/09/27 10:01:37;;;;;;;14.20;6.60;;;;;;;20.30;100.00;101691.19;7401081;19;20412;-52
2023/09/27 10:04:07;;;;;;;9.80;4.60;;;;;;;20.47;100.00;101673.13;7375792;19;20426;-53
2023/09/27 10:06:40;;;;;;;11.53;6.17;;;;;;;20.54;100.00;101692.44;7398358;19;20403;-49
2023/09/27 10:09:18;;;;;;;9.50;5.70;;;;;;;20.54;100.00;101647.91;7371484;19;20490;-51
2023/09/27 10:11:48;;;;;;;10.77;6.40;;;;;;;20.56;100.00;101601.59;7399643;19;20471;-53
2023/09/27 10:14:21;;;;;;;11.57;5.47;;;;;;;20.59;100.00;101616.50;7375794;19;20454;-55
2023/09/27 10:16:51;;;;;;;8.47;5.00;;;;;;;20.55;100.00;101575.41;7397229;19;20868;-53
2023/09/27 10:19:28;;;;;;;9.10;5.23;;;;;;;20.54;100.00;101537.81;7373476;19;21002;-50
2023/09/27 10:22:14;;;;;;;10.73;4.67;;;;;;;20.66;100.00;101530.97;7395217;19;20407;-49
2023/09/27 10:24:44;;;;;;;12.40;5.60;;;;;;;20.69;100.00;101520.50;7372322;19;20427;-52
2023/09/27 10:27:13;;;;;;;12.90;5.57;;;;;;;20.61;100.00;101518.66;7375330;19;20422;-50
2023/09/27 10:30:01;;;;;;;9.17;5.00;;;;;;;20.55;100.00;101507.25;7397686;19;20421;-50
2023/09/27 10:32:31;;;;;;;10.67;5.27;;;;;;;20.51;100.00;101506.34;7375832;19;20411;-53
2023/09/27 10:35:18;;;;;;;8.47;4.10;;;;;;;20.46;100.00;101534.22;7397342;19;20428;-52
2023/09/27 10:38:08;;;;;;;10.30;6.70;;;;;;;20.43;100.00;101539.41;7373390;19;20831;-52
2023/09/27 10:40:44;;;;;;;10.70;5.27;;;;;;;20.38;100.00;101531.50;7399204;19;20403;-51
2023/09/27 10:43:42;;;;;;;8.83;4.90;;;;;;;20.45;100.00;101548.19;7370642;19;20518;-49
2023/09/27 10:46:14;;;;;;;10.63;4.73;;;;;;;20.40;100.00;101560.34;7399399;19;20410;-50
2023/09/27 10:48:44;;;;;;;9.77;4.60;;;;;;;20.48;100.00;101545.59;7369870;19;21256;-51
2023/09/27 10:51:14;;;;;;;8.50;4.70;;;;;;;20.51;100.00;101550.88;7395760;19;20471;-50
2023/09/27 10:53:45;;;;;;;12.27;5.23;;;;;;;20.56;100.00;101554.44;7372752;19;20518;-49
2023/09/27 10:56:15;;;;;;;9.23;5.53;;;;;;;20.69;100.00;101563.34;7398563;19;20487;-53
2023/09/27 10:58:46;;;;;;;8.43;5.10;;;;;;;20.93;100.00;101561.03;7371719;19;21033;-52
2023/09/27 11:01:25;;;;;;;9.00;4.70;;;;;;;20.89;100.00;101555.75;7396586;19;20424;-53
2023/09/27 11:03:59;;;;;;;10.47;4.50;;;;;;;21.01;100.00;101554.09;7374356;19;20461;-50
2023/09/27 11:06:31;;;;;;;9.87;4.83;;;;;;;21.10;100.00;101564.72;7398033;19;20959;-50
2023/09/27 11:09:08;;;;;;;8.90;4.70;;;;;;;21.10;100.00;101564.72;7372262;19;20526;-51
2023/09/27 11:11:37;;;;;;;8.20;4.00;;;;;;;21.21;100.00;101577.94;7397084;19;20417;-49
2023/09/27 11:14:07;;;;;;;10.97;5.47;;;;;;;21.17;100.00;101576.13;7370875;19;20427;-51
2023/09/27 11:16:39;;;;;;;8.20;4.23;;;;;;;21.33;100.00;101586.81;7396566;19;20795;-52
2023/09/27 11:19:10;;;;;;;12.30;5.20;;;;;;;21.29;100.00;101581.50;7372695;19;20466;-52
2023/09/27 11:21:41;;;;;;;11.90;5.87;;;;;;;21.26;100.00;101589.38;7396138;19;21031;-52
2023/09/27 11:24:12;;;;;;;11.70;5.63;;;;;;;21.44;100.00;101591.28;7370951;19;21075;-51